Time;durP1;ratioP1;P1;durP2;ratioP2;P2;SDS_P1;SDS_P2;PMS_P1;PMS_P2;Temp;Humidity;BMP_temperature;BMP_pressure;BME280_temperature;BME280_humidity;BME280_pressure;Samples;Min_cycle;Max_cycle;Signal;HPM_P1;HPM_P2
2022/05/23 00:00:44;;;;;;;5.43;2.40;;;19.90;99.90;;;;;;4215150;28;20174;-89
2022/05/23 00:02:46;;;;;;;6.57;2.25;;;19.80;99.90;;;;;;4197572;28;20193;-90
2022/05/23 00:04:47;;;;;;;3.83;2.40;;;19.80;99.90;;;;;;4215066;28;20171;-90
2022/05/23 00:06:49;;;;;;;4.82;2.20;;;19.80;99.90;;;;;;4197397;28;20201;-90
2022/05/23 00:08:50;;;;;;;5.35;2.08;;;19.80;99.90;;;;;;4197049;28;20228;-89
2022/05/23 00:10:51;;;;;;;5.63;2.40;;;19.80;99.90;;;;;;4197363;28;20166;-90
2022/05/23 00:12:52;;;;;;;8.48;2.80;;;19.80;99.90;;;;;;4213817;28;20606;-90
2022/05/23 00:14:53;;;;;;;7.05;2.33;;;19.50;99.90;;;;;;4213675;28;20182;-90
2022/05/23 00:16:54;;;;;;;5.30;2.30;;;19.40;99.90;;;;;;4213539;28;20207;-89
2022/05/23 00:18:54;;;;;;;9.80;2.42;;;19.30;99.90;;;;;;4199745;28;20208;-89
2022/05/23 00:20:55;;;;;;;8.10;2.40;;;19.30;99.90;;;;;;4216664;28;20178;-89
2022/05/23 00:22:56;;;;;;;4.18;2.00;;;19.50;99.90;;;;;;4200292;28;20187;-90
2022/05/23 00:24:57;;;;;;;5.07;1.85;;;19.50;99.90;;;;;;4217075;28;20167;-89
2022/05/23 00:26:57;;;;;;;3.90;1.92;;;19.50;99.90;;;;;;4200328;28;20187;-90
2022/05/23 00:28:58;;;;;;;5.38;2.28;;;19.50;99.90;;;;;;4216943;28;20730;-90
2022/05/23 00:30:59;;;;;;;5.28;2.00;;;19.50;99.90;;;;;;4217080;28;20178;-90
2022/05/23 00:35:19;;;;;;;6.50;1.88;;;19.50;99.90;;;;;;4216808;28;20213;-90
2022/05/23 00:37:23;;;;;;;10.00;2.42;;;19.60;99.90;;;;;;4216513;28;20190;-90
2022/05/23 00:39:24;;;;;;;5.55;1.85;;;19.60;99.90;;;;;;4199740;28;20214;-89
2022/05/23 00:44:03;;;;;;;8.65;2.50;;;19.60;99.90;;;;;;4216595;28;20185;-91
2022/05/23 00:46:06;;;;;;;5.47;2.65;;;19.60;99.90;;;;;;4216482;28;20166;-91
2022/05/23 00:48:08;;;;;;;5.22;2.40;;;19.50;99.90;;;;;;4199673;28;20632;-89
2022/05/23 00:50:13;;;;;;;5.30;2.20;;;19.40;99.90;;;;;;4216751;28;20174;-90
2022/05/23 00:52:25;;;;;;;5.25;2.13;;;19.40;99.90;;;;;;4216808;28;20192;-90
2022/05/23 00:54:33;;;;;;;6.32;2.50;;;19.60;99.90;;;;;;4216566;28;20181;-90
2022/05/23 00:56:43;;;;;;;6.85;2.58;;;19.60;99.90;;;;;;4199743;28;20191;-90
2022/05/23 00:58:49;;;;;;;6.97;2.25;;;19.70;99.90;;;;;;4199275;28;20167;-90
2022/05/23 01:00:51;;;;;;;5.05;2.30;;;19.30;99.90;;;;;;4199961;28;20179;-91
2022/05/23 01:02:56;;;;;;;5.57;2.10;;;19.30;99.90;;;;;;4199384;28;20561;-88
2022/05/23 01:04:57;;;;;;;4.97;2.25;;;19.30;99.90;;;;;;4199638;28;20175;-89
2022/05/23 01:06:58;;;;;;;6.63;2.20;;;19.30;99.90;;;;;;4199755;28;20594;-90
2022/05/23 01:08:59;;;;;;;5.28;2.53;;;19.30;99.90;;;;;;4199606;28;20214;-89
2022/05/23 01:11:02;;;;;;;4.22;2.28;;;19.30;99.90;;;;;;4199935;28;20197;-89
2022/05/23 01:13:03;;;;;;;6.38;2.40;;;19.40;99.90;;;;;;4216179;28;20189;-91
2022/05/23 01:15:24;;;;;;;5.80;2.35;;;19.40;99.90;;;;;;4216378;28;20171;-90
2022/05/23 01:17:30;;;;;;;4.65;2.22;;;19.40;99.90;;;;;;4216142;28;20617;-90
2022/05/23 01:19:36;;;;;;;5.38;2.50;;;19.50;99.90;;;;;;4199783;28;20174;-89
2022/05/23 01:21:46;;;;;;;5.68;2.50;;;19.50;99.90;;;;;;4215890;28;20174;-90
2022/05/23 01:24:11;;;;;;;7.82;2.55;;;19.60;99.90;;;;;;4199787;28;20181;-90
2022/05/23 01:26:18;;;;;;;9.30;2.60;;;19.50;99.90;;;;;;4199952;28;20272;-89
2022/05/23 01:28:23;;;;;;;7.13;2.70;;;19.60;99.90;;;;;;4216087;28;20206;-90
2022/05/23 01:30:25;;;;;;;3.33;2.35;;;19.60;99.90;;;;;;4198607;28;20684;-90
2022/05/23 01:32:45;;;;;;;6.55;2.22;;;19.60;99.90;;;;;;4216326;28;20175;-89
2022/05/23 01:34:46;;;;;;;7.93;2.55;;;19.50;99.90;;;;;;4199331;28;20167;-90
2022/05/23 01:36:50;;;;;;;5.40;2.40;;;19.60;99.90;;;;;;4216033;28;20186;-89
2022/05/23 01:38:51;;;;;;;6.80;2.33;;;19.60;99.90;;;;;;4216049;28;20261;-89
2022/05/23 01:40:58;;;;;;;5.25;2.45;;;19.60;99.90;;;;;;4199553;28;20581;-90
2022/05/23 01:42:59;;;;;;;4.40;2.13;;;19.50;99.90;;;;;;4215651;28;20558;-90
2022/05/23 01:45:00;;;;;;;5.35;2.38;;;19.40;99.90;;;;;;4198769;28;20597;-91
2022/05/23 01:47:15;;;;;;;6.25;2.53;;;19.50;99.90;;;;;;4199158;28;20190;-91
2022/05/23 01:49:34;;;;;;;4.00;2.00;;;19.50;99.90;;;;;;4201393;28;20225;-90
2022/05/23 01:51:47;;;;;;;5.28;2.30;;;19.40;99.90;;;;;;4200381;28;20268;-90
2022/05/23 01:53:50;;;;;;;8.35;2.60;;;19.30;99.90;;;;;;4232784;28;20683;-90
2022/05/23 01:55:51;;;;;;;4.47;2.28;;;19.30;99.90;;;;;;4198837;28;20186;-90
2022/05/23 01:57:55;;;;;;;4.40;2.53;;;19.30;99.90;;;;;;4199052;28;20197;-90
2022/05/23 02:02:16;;;;;;;5.57;2.47;;;19.50;99.90;;;;;;4216514;28;20170;-90
2022/05/23 02:04:17;;;;;;;6.25;2.60;;;19.50;99.90;;;;;;4198390;28;20175;-91
2022/05/23 02:06:18;;;;;;;4.43;2.50;;;19.30;99.90;;;;;;4198456;28;20379;-90
2022/05/23 02:08:22;;;;;;;5.05;2.20;;;19.30;99.90;;;;;;4198820;28;20542;-89
2022/05/23 02:10:24;;;;;;;6.20;2.55;;;19.20;99.90;;;;;;4198666;28;20174;-91
2022/05/23 02:12:26;;;;;;;8.55;2.80;;;19.20;99.90;;;;;;4215358;28;20170;-90
2022/05/23 02:14:29;;;;;;;9.27;3.35;;;19.30;99.90;;;;;;4215078;28;20174;-91
2022/05/23 02:16:30;;;;;;;5.55;3.03;;;19.10;99.90;;;;;;4198155;28;20260;-89
2022/05/23 02:18:35;;;;;;;7.72;2.90;;;19.10;99.90;;;;;;4215003;28;20174;-91
2022/05/23 02:20:36;;;;;;;4.75;2.70;;;19.00;99.90;;;;;;4231369;28;20173;-89
2022/05/23 02:22:37;;;;;;;11.13;3.10;;;18.90;99.90;;;;;;4215159;28;20583;-91
2022/05/23 02:24:52;;;;;;;5.65;2.95;;;18.90;99.90;;;;;;4216833;28;20162;-91
2022/05/23 02:26:54;;;;;;;5.82;3.00;;;18.90;99.90;;;;;;4197915;28;20681;-90
2022/05/23 02:29:08;;;;;;;6.30;3.05;;;18.90;99.90;;;;;;4199499;28;20214;-91
2022/05/23 02:31:08;;;;;;;5.35;2.95;;;18.70;99.90;;;;;;4214997;28;20167;-90
2022/05/23 02:33:25;;;;;;;8.82;3.40;;;18.70;99.90;;;;;;4215123;28;20180;-91
2022/05/23 02:35:41;;;;;;;7.72;3.50;;;18.80;99.90;;;;;;4215557;28;20257;-90
2022/05/23 02:37:43;;;;;;;8.25;3.05;;;18.70;99.90;;;;;;4214724;28;20200;-89
2022/05/23 02:39:43;;;;;;;6.28;3.38;;;18.60;99.90;;;;;;4215103;28;20172;-89
2022/05/23 02:41:44;;;;;;;6.63;3.42;;;18.30;99.90;;;;;;4231292;28;20205;-92
2022/05/23 02:43:48;;;;;;;9.77;3.58;;;18.10;99.90;;;;;;4214546;28;20178;-90
2022/05/23 02:45:53;;;;;;;6.97;3.08;;;18.40;99.90;;;;;;4198721;28;20248;-90
2022/05/23 02:47:55;;;;;;;8.73;3.17;;;18.60;99.90;;;;;;4214474;28;20239;-91
2022/05/23 02:49:55;;;;;;;9.30;3.28;;;18.60;99.90;;;;;;4214511;28;20179;-91
2022/05/23 02:52:07;;;;;;;5.50;2.95;;;18.20;99.90;;;;;;4214457;28;20177;-89
2022/05/23 02:54:27;;;;;;;8.75;3.60;;;18.10;99.90;;;;;;4214382;28;20546;-90
2022/05/23 02:56:34;;;;;;;12.32;4.45;;;18.40;99.90;;;;;;4214356;28;20653;-89
2022/05/23 02:58:35;;;;;;;8.20;3.70;;;18.70;99.90;;;;;;4197773;28;20171;-89
2022/05/23 03:00:37;;;;;;;9.70;4.03;;;19.20;99.90;;;;;;4215877;28;20312;-90
2022/05/23 03:05:02;;;;;;;7.88;4.00;;;19.80;99.90;;;;;;4214641;28;20249;-88
2022/05/23 03:07:03;;;;;;;11.15;4.40;;;19.90;99.90;;;;;;4214242;28;20191;-89
2022/05/23 03:09:04;;;;;;;7.78;4.18;;;19.80;99.90;;;;;;4197424;28;20263;-90
2022/05/23 03:11:08;;;;;;;7.25;4.05;;;19.40;99.90;;;;;;4214507;28;20178;-91
2022/05/23 03:13:09;;;;;;;12.00;4.30;;;19.20;99.90;;;;;;4214259;28;20197;-90
2022/05/23 03:15:11;;;;;;;11.32;4.53;;;19.00;99.90;;;;;;4213702;28;20166;-90
2022/05/23 03:17:13;;;;;;;11.73;4.28;;;18.70;99.90;;;;;;4197639;28;20203;-89
2022/05/23 03:19:17;;;;;;;8.70;4.65;;;18.90;99.90;;;;;;4197741;28;20213;-89
2022/05/23 03:26:58;;;;;;;8.13;4.35;;;18.90;99.90;;;;;;4213983;28;20573;-90
2022/05/23 03:28:20;;;;;;;7.97;4.35;;;18.00;99.90;;;;;;4214064;28;20206;-90
2022/05/23 03:30:21;;;;;;;9.38;4.57;;;18.30;99.90;;;;;;4197634;28;20163;-90
2022/05/23 03:32:27;;;;;;;12.88;4.30;;;18.70;99.90;;;;;;4214177;28;20235;-90
2022/05/23 03:34:28;;;;;;;7.22;4.38;;;19.10;99.90;;;;;;4215350;28;20167;-90
2022/05/23 03:36:29;;;;;;;8.15;4.60;;;19.20;99.90;;;;;;4197043;28;20194;-90
2022/05/23 03:38:30;;;;;;;12.15;5.13;;;19.40;99.90;;;;;;4197427;28;20171;-89
2022/05/23 03:40:32;;;;;;;13.73;5.07;;;19.30;99.90;;;;;;4197281;28;20194;-90
2022/05/23 03:42:34;;;;;;;7.00;4.47;;;19.30;99.90;;;;;;4197481;28;20171;-90
2022/05/23 03:44:35;;;;;;;9.15;4.40;;;19.20;99.90;;;;;;4197173;28;20597;-90
2022/05/23 03:46:37;;;;;;;8.63;4.45;;;19.10;99.90;;;;;;4197289;28;20206;-89
2022/05/23 03:48:38;;;;;;;9.15;5.13;;;19.00;99.90;;;;;;4213855;28;20693;-89
2022/05/23 03:50:39;;;;;;;10.57;4.70;;;19.00;99.90;;;;;;4214126;28;20609;-89
2022/05/23 03:52:41;;;;;;;12.82;4.45;;;18.80;99.90;;;;;;4197008;28;20177;-89
2022/05/23 03:54:43;;;;;;;7.93;4.32;;;18.40;99.90;;;;;;4231119;28;20169;-90
2022/05/23 03:56:44;;;;;;;9.13;4.38;;;17.80;99.90;;;;;;4196838;28;20253;-89
2022/05/23 03:58:45;;;;;;;11.18;4.50;;;17.60;99.90;;;;;;4213708;28;20178;-90
2022/05/23 04:01:09;;;;;;;9.38;5.00;;;17.60;99.90;;;;;;4213440;28;20166;-89
2022/05/23 04:03:10;;;;;;;11.70;5.10;;;17.50;99.90;;;;;;4196686;28;20182;-89
2022/05/23 04:05:13;;;;;;;10.32;4.88;;;17.50;99.90;;;;;;4230449;28;20244;-90
2022/05/23 04:07:36;;;;;;;11.70;5.32;;;17.60;99.90;;;;;;4213979;28;20228;-89
2022/05/23 04:09:45;;;;;;;11.95;5.35;;;18.10;99.90;;;;;;4214750;28;20218;-89
2022/05/23 04:11:47;;;;;;;15.40;5.00;;;18.50;99.90;;;;;;4214052;28;20174;-90
2022/05/23 04:13:50;;;;;;;12.50;4.93;;;18.90;99.90;;;;;;4197764;28;20178;-91
2022/05/23 04:15:52;;;;;;;11.65;4.90;;;19.00;99.90;;;;;;4214055;28;20261;-90
2022/05/23 04:17:52;;;;;;;8.07;4.43;;;18.70;99.90;;;;;;4213858;28;20190;-89
2022/05/23 04:19:54;;;;;;;11.57;4.60;;;18.50;99.90;;;;;;4213770;28;20173;-89
2022/05/23 04:21:58;;;;;;;11.73;5.00;;;18.30;99.90;;;;;;4197314;28;20693;-90
2022/05/23 04:24:05;;;;;;;11.15;4.45;;;18.00;99.90;;;;;;4197982;28;20710;-90
2022/05/23 04:26:09;;;;;;;8.25;4.32;;;17.90;99.90;;;;;;4213826;28;20174;-90
2022/05/23 04:28:12;;;;;;;14.68;4.40;;;17.80;99.90;;;;;;4213734;28;20652;-89
2022/05/23 04:30:17;;;;;;;12.05;5.00;;;18.20;99.90;;;;;;4214198;28;20185;-90
2022/05/23 04:36:58;;;;;;;9.63;4.82;;;18.70;99.90;;;;;;4213635;28;20549;-90
2022/05/23 04:39:11;;;;;;;12.73;4.45;;;18.70;99.90;;;;;;4213928;28;20166;-88
2022/05/23 04:41:13;;;;;;;11.65;5.07;;;18.90;99.90;;;;;;4213675;28;20178;-89
2022/05/23 04:43:29;;;;;;;12.90;5.07;;;19.00;99.90;;;;;;4215138;28;20196;-89
2022/05/23 04:45:30;;;;;;;12.63;5.43;;;18.80;99.90;;;;;;4230452;28;20231;-89
2022/05/23 04:50:13;;;;;;;14.02;5.95;;;19.10;99.90;;;;;;4213742;28;20553;-90
2022/05/23 04:52:19;;;;;;;15.45;5.30;;;19.00;99.90;;;;;;4213821;28;20177;-89
2022/05/23 04:54:20;;;;;;;13.70;5.75;;;19.10;99.90;;;;;;4197027;28;20569;-89
2022/05/23 04:56:25;;;;;;;17.83;6.18;;;19.10;99.90;;;;;;4213465;28;20203;-88
2022/05/23 04:58:32;;;;;;;9.20;5.43;;;19.00;99.90;;;;;;4197566;28;20608;-89
2022/05/23 05:00:39;;;;;;;12.38;5.50;;;19.00;99.90;;;;;;4197255;28;20186;-90
2022/05/23 05:02:40;;;;;;;8.38;5.35;;;19.10;99.90;;;;;;4213244;28;20170;-90
2022/05/23 05:04:41;;;;;;;15.15;5.85;;;18.90;99.90;;;;;;4197776;28;20171;-90
2022/05/23 05:06:43;;;;;;;16.63;5.63;;;18.90;99.90;;;;;;4216555;28;20258;-89
2022/05/23 05:08:44;;;;;;;13.13;5.85;;;19.30;99.90;;;;;;4233481;28;20201;-90
2022/05/23 05:10:45;;;;;;;13.00;5.93;;;19.40;99.90;;;;;;4199996;28;20688;-89
2022/05/23 05:12:45;;;;;;;16.17;6.30;;;19.50;99.90;;;;;;4199878;28;20654;-89
2022/05/23 05:14:49;;;;;;;12.25;5.93;;;19.40;99.90;;;;;;4200159;28;20685;-90
2022/05/23 05:16:53;;;;;;;17.02;6.22;;;19.40;99.90;;;;;;4200191;28;20190;-90
2022/05/23 05:18:54;;;;;;;76.93;8.27;;;19.10;99.90;;;;;;4216148;28;20166;-89
2022/05/23 05:21:15;;;;;;;71.55;9.52;;;18.80;99.90;;;;;;4230524;28;20234;-90
2022/05/23 05:23:36;;;;;;;32.03;7.38;;;18.60;99.90;;;;;;4195336;28;20188;-90
2022/05/23 05:25:57;;;;;;;15.30;6.32;;;18.40;99.90;;;;;;4201992;28;20167;-89
2022/05/23 05:28:04;;;;;;;17.05;6.30;;;18.30;99.90;;;;;;4200427;28;20182;-89
2022/05/23 05:30:11;;;;;;;14.80;6.07;;;18.40;99.90;;;;;;4216610;28;20178;-89
2022/05/23 05:32:22;;;;;;;15.10;6.90;;;18.40;99.90;;;;;;4199275;28;20190;-90
2022/05/23 05:34:29;;;;;;;18.02;7.38;;;18.30;99.90;;;;;;4216285;28;20220;-90
2022/05/23 05:36:36;;;;;;;15.20;5.88;;;18.50;99.90;;;;;;4199356;28;20265;-90
2022/05/23 05:38:57;;;;;;;13.20;6.45;;;18.70;99.90;;;;;;4199259;28;20167;-90
2022/05/23 05:41:04;;;;;;;11.25;6.38;;;18.50;99.90;;;;;;4216300;28;20186;-90
2022/05/23 05:43:13;;;;;;;9.88;6.20;;;18.30;99.90;;;;;;4199373;28;20667;-90
2022/05/23 05:45:22;;;;;;;14.75;6.00;;;18.20;99.90;;;;;;4216151;28;20251;-90
2022/05/23 05:47:23;;;;;;;11.32;6.00;;;18.30;99.90;;;;;;4199104;28;20186;-90
2022/05/23 05:49:28;;;;;;;12.13;5.80;;;18.30;99.90;;;;;;4215727;28;20216;-90
2022/05/23 05:51:29;;;;;;;12.00;5.47;;;18.50;99.90;;;;;;4215899;28;20216;-90
2022/05/23 05:54:05;;;;;;;14.88;6.35;;;18.60;99.90;;;;;;4203836;28;20482;-90
2022/05/23 05:56:15;;;;;;;10.50;5.88;;;18.70;99.90;;;;;;4199803;28;21500;-90
2022/05/23 05:58:19;;;;;;;15.00;5.75;;;18.80;99.90;;;;;;4199248;28;20171;-90
2022/05/23 06:00:23;;;;;;;11.48;5.68;;;19.00;99.90;;;;;;4215777;28;20174;-89
2022/05/23 06:02:28;;;;;;;12.15;5.40;;;19.20;99.90;;;;;;4215687;28;20178;-89
2022/05/23 06:04:29;;;;;;;11.32;5.70;;;19.20;99.90;;;;;;4232612;28;20698;-90
2022/05/23 06:11:35;;;;;;;11.40;5.57;;;19.20;99.90;;;;;;4215776;28;20206;-89
2022/05/23 06:14:05;;;;;;;13.85;5.63;;;19.20;99.90;;;;;;4204947;28;20167;-90
2022/05/23 06:16:16;;;;;;;17.08;5.80;;;19.20;99.90;;;;;;4199370;28;20199;-89
2022/05/23 06:18:26;;;;;;;15.75;7.00;;;19.10;99.90;;;;;;4200067;28;20171;-90
2022/05/23 06:20:28;;;;;;;9.68;6.13;;;19.00;99.90;;;;;;4198584;28;20179;-90
2022/05/23 06:22:28;;;;;;;16.13;6.43;;;19.10;99.90;;;;;;4215339;28;20162;-90
2022/05/23 06:24:37;;;;;;;25.33;8.68;;;19.10;99.90;;;;;;4215145;28;20610;-90
2022/05/23 06:26:41;;;;;;;20.48;7.57;;;19.20;99.90;;;;;;4215567;28;20190;-90
2022/05/23 06:29:08;;;;;;;14.13;6.18;;;19.30;99.90;;;;;;4210724;28;20304;-87
2022/05/23 06:31:10;;;;;;;13.93;6.13;;;19.40;99.90;;;;;;4215542;28;20166;-88
2022/05/23 06:33:12;;;;;;;20.55;7.05;;;19.50;99.90;;;;;;4198566;28;20241;-88
2022/05/23 06:35:25;;;;;;;15.82;6.95;;;19.50;99.90;;;;;;4215290;28;20246;-87
2022/05/23 06:37:27;;;;;;;17.98;7.30;;;19.50;99.90;;;;;;4231366;28;20212;-87
2022/05/23 06:39:40;;;;;;;12.52;5.93;;;19.70;99.90;;;;;;4199828;28;20189;-88
2022/05/23 06:42:13;;;;;;;11.73;5.32;;;19.70;99.90;;;;;;4227563;28;20235;-88
2022/05/23 06:44:50;;;;;;;9.82;5.28;;;19.80;99.90;;;;;;4185890;28;20190;-90
2022/05/23 06:47:24;;;;;;;9.77;4.80;;;19.90;99.90;;;;;;4181892;28;20202;-90
2022/05/23 06:49:43;;;;;;;7.70;4.70;;;20.00;99.90;;;;;;4216408;28;20312;-91
2022/05/23 06:52:04;;;;;;;9.70;5.50;;;20.10;99.90;;;;;;4194662;28;20196;-91
2022/05/23 06:54:13;;;;;;;9.95;5.30;;;20.40;99.90;;;;;;4214953;28;20604;-90
2022/05/23 06:56:18;;;;;;;10.35;5.72;;;20.70;99.90;;;;;;4214798;28;20186;-89
2022/05/23 06:58:21;;;;;;;11.45;5.20;;;21.50;99.90;;;;;;4198535;28;20286;-89
2022/05/23 07:00:22;;;;;;;10.55;4.40;;;21.90;99.90;;;;;;4198363;28;20175;-89
2022/05/23 07:02:34;;;;;;;10.93;4.63;;;21.70;99.90;;;;;;4214989;28;20166;-90
2022/05/23 07:12:25;;;;;;;10.60;4.82;;;20.40;99.90;;;;;;4199485;28;20637;-90
2022/05/23 07:14:27;;;;;;;11.25;4.82;;;20.30;99.90;;;;;;4214670;28;20171;-90
2022/05/23 07:16:31;;;;;;;12.90;5.03;;;20.40;99.90;;;;;;4197837;28;20191;-91
2022/05/23 07:18:32;;;;;;;8.63;4.72;;;20.60;99.90;;;;;;4214681;28;20177;-90
2022/05/23 07:20:34;;;;;;;11.32;4.90;;;20.70;99.90;;;;;;4198163;28;20159;-90
2022/05/23 07:22:42;;;;;;;8.75;4.05;;;20.90;99.90;;;;;;4198978;28;20170;-90
2022/05/23 07:24:44;;;;;;;7.78;3.97;;;20.80;99.90;;;;;;4214902;28;20173;-89
2022/05/23 07:26:49;;;;;;;8.23;3.80;;;20.70;99.90;;;;;;4197933;28;20202;-91
2022/05/23 07:28:51;;;;;;;9.50;4.22;;;20.20;99.90;;;;;;4197031;28;20210;-91
2022/05/23 07:30:55;;;;;;;9.57;4.45;;;20.40;99.90;;;;;;4198204;28;20163;-89
2022/05/23 07:33:00;;;;;;;10.82;4.32;;;20.60;99.90;;;;;;4214363;28;20196;-89
2022/05/23 07:35:33;;;;;;;9.73;3.45;;;21.10;99.90;;;;;;4208671;28;20532;-90
2022/05/23 07:37:35;;;;;;;4.88;2.90;;;22.10;99.90;;;;;;4214051;28;20267;-91
2022/05/23 07:39:39;;;;;;;6.93;2.92;;;22.90;99.90;;;;;;4197505;28;20174;-90
2022/05/23 07:42:01;;;;;;;8.88;3.00;;;24.10;99.90;;;;;;4216681;28;20174;-91
2022/05/23 07:44:02;;;;;;;7.88;2.40;;;25.90;99.90;;;;;;4214239;28;20240;-90
2022/05/23 07:46:09;;;;;;;5.40;2.50;;;27.00;99.90;;;;;;4214229;28;20578;-90
2022/05/23 07:48:11;;;;;;;5.40;2.25;;;28.10;99.90;;;;;;4197675;28;20550;-90
2022/05/23 07:50:19;;;;;;;7.43;3.00;;;28.40;99.90;;;;;;4214971;28;20259;-91
2022/05/23 07:52:20;;;;;;;10.48;2.83;;;28.30;99.90;;;;;;4214185;28;20593;-89
2022/05/23 08:01:24;;;;;;;13.07;3.20;;;27.20;99.90;;;;;;4214249;28;20212;-87
2022/05/23 08:03:34;;;;;;;7.75;3.10;;;27.50;99.90;;;;;;4215285;28;20165;-87
2022/05/23 08:05:48;;;;;;;9.70;2.83;;;27.90;99.90;;;;;;4199336;28;20656;-87
2022/05/23 08:07:51;;;;;;;8.95;2.90;;;28.60;99.90;;;;;;4197393;28;20186;-87
2022/05/23 08:09:52;;;;;;;6.05;2.67;;;28.50;99.90;;;;;;4214226;28;20264;-88
2022/05/23 08:11:54;;;;;;;7.20;2.80;;;28.20;99.90;;;;;;4197485;28;20743;-86
2022/05/23 08:13:57;;;;;;;6.28;3.40;;;28.40;99.90;;;;;;4197379;28;20310;-86
2022/05/23 08:15:59;;;;;;;9.80;2.70;;;28.30;99.90;;;;;;4214095;28;20162;-88
2022/05/23 08:18:00;;;;;;;4.80;2.70;;;29.20;99.90;;;;;;4214263;28;20265;-87
2022/05/23 08:20:08;;;;;;;4.13;2.55;;;30.10;99.90;;;;;;4214927;28;20529;-86
2022/05/23 08:22:12;;;;;;;12.32;3.55;;;30.90;99.90;;;;;;4214089;28;20216;-86
2022/05/23 08:24:22;;;;;;;7.78;3.20;;;31.20;99.90;;;;;;4215482;28;20656;-86
2022/05/23 08:26:25;;;;;;;10.02;2.85;;;30.90;99.90;;;;;;4213839;28;20692;-87
2022/05/23 08:28:25;;;;;;;5.20;2.90;;;30.90;99.90;;;;;;4213990;28;20249;-86
2022/05/23 08:30:27;;;;;;;4.88;3.08;;;31.50;99.90;;;;;;4213616;28;20174;-87
2022/05/23 08:32:37;;;;;;;6.63;2.90;;;31.70;99.90;;;;;;4213863;28;20170;-86
2022/05/23 08:34:50;;;;;;;5.65;3.38;;;32.80;99.90;;;;;;4213771;28;20173;-86
2022/05/23 08:36:52;;;;;;;6.57;3.78;;;32.60;99.90;;;;;;4213778;28;20197;-86
2022/05/23 08:38:53;;;;;;;8.70;3.53;;;32.70;99.90;;;;;;4215297;28;20180;-87
2022/05/23 08:41:16;;;;;;;8.57;2.85;;;33.00;99.90;;;;;;4217113;28;20199;-87
2022/05/23 08:43:35;;;;;;;5.00;3.28;;;33.30;99.90;;;;;;4216911;28;20243;-87
2022/05/23 08:45:40;;;;;;;6.43;3.28;;;32.70;99.90;;;;;;4216724;28;20170;-86
2022/05/23 08:48:03;;;;;;;7.03;2.90;;;31.70;99.90;;;;;;4216782;28;20197;-87
2022/05/23 08:50:22;;;;;;;7.07;3.50;;;31.60;99.90;;;;;;4200952;28;20193;-86
2022/05/23 08:52:37;;;;;;;5.95;3.40;;;31.20;99.90;;;;;;4199876;28;20707;-86
2022/05/23 08:55:02;;;;;;;6.43;3.20;;;30.60;99.90;;;;;;4200704;28;20173;-86
2022/05/23 08:57:52;;;;;;;6.93;3.00;;;30.30;99.90;;;;;;4216682;28;20215;-86
2022/05/23 09:00:00;;;;;;;8.02;3.65;;;29.60;99.90;;;;;;4199712;28;20657;-86
2022/05/23 09:02:25;;;;;;;5.43;3.40;;;29.60;99.90;;;;;;4215786;28;20196;-86
2022/05/23 09:04:52;;;;;;;5.35;3.50;;;29.20;99.90;;;;;;4193925;28;20187;-86
2022/05/23 09:06:54;;;;;;;8.25;3.45;;;28.60;99.90;;;;;;4199151;28;20199;-85
2022/05/23 09:09:01;;;;;;;6.63;3.45;;;28.10;99.90;;;;;;4217456;28;20198;-86
2022/05/23 09:11:09;;;;;;;4.85;3.33;;;27.90;99.90;;;;;;4199774;28;20264;-86
2022/05/23 09:13:13;;;;;;;5.53;2.80;;;27.50;99.90;;;;;;4199572;28;20174;-86
2022/05/23 09:15:14;;;;;;;4.97;2.70;;;27.30;99.90;;;;;;4216492;28;20182;-86
2022/05/23 09:17:27;;;;;;;7.45;2.53;;;26.80;99.90;;;;;;4199514;28;20622;-86
2022/05/23 09:19:49;;;;;;;5.43;2.55;;;26.30;99.90;;;;;;4199526;28;20171;-86
2022/05/23 09:24:11;;;;;;;3.85;2.13;;;26.10;99.90;;;;;;4216553;28;20569;-86
2022/05/23 09:26:24;;;;;;;5.72;2.08;;;26.00;99.90;;;;;;4216295;28;20170;-86
2022/05/23 09:28:35;;;;;;;3.67;1.83;;;26.10;99.90;;;;;;4199329;28;20175;-86
2022/05/23 09:30:37;;;;;;;3.47;2.20;;;26.00;99.90;;;;;;4199452;28;20612;-86
2022/05/23 09:32:59;;;;;;;7.18;2.33;;;25.90;99.90;;;;;;4216365;28;20171;-86
2022/05/23 09:35:18;;;;;;;6.45;2.00;;;25.90;99.90;;;;;;4199836;28;20227;-86
2022/05/23 09:37:23;;;;;;;6.70;2.20;;;25.80;99.90;;;;;;4199108;28;20178;-86
2022/05/23 09:39:25;;;;;;;4.43;1.70;;;25.50;99.90;;;;;;4199427;28;20457;-86
2022/05/23 09:49:10;;;;;;;7.22;2.00;;;24.60;99.90;;;;;;4215859;28;20202;-86
2022/05/23 09:51:11;;;;;;;3.03;1.63;;;24.50;99.90;;;;;;4215325;28;20197;-86
2022/05/23 09:53:28;;;;;;;3.25;1.77;;;24.50;99.90;;;;;;4199245;28;20253;-86
2022/05/23 09:55:35;;;;;;;3.45;1.90;;;24.40;99.90;;;;;;4216100;28;20174;-86
2022/05/23 09:57:49;;;;;;;3.78;1.98;;;24.30;99.90;;;;;;4198181;28;20281;-86
2022/05/23 09:59:59;;;;;;;6.45;1.95;;;24.10;99.90;;;;;;4199144;28;20735;-86
2022/05/23 10:02:14;;;;;;;10.40;2.53;;;23.90;99.90;;;;;;4215707;28;20637;-85
2022/05/23 10:04:21;;;;;;;2.88;1.80;;;23.90;99.90;;;;;;4215874;28;20209;-86
2022/05/23 10:06:37;;;;;;;4.75;2.15;;;23.90;99.90;;;;;;4215411;28;20186;-86
2022/05/23 10:08:44;;;;;;;3.90;2.20;;;24.00;99.90;;;;;;4215901;28;20197;-86
2022/05/23 10:10:59;;;;;;;3.05;1.85;;;23.90;99.90;;;;;;4200672;28;20179;-86
2022/05/23 10:13:29;;;;;;;3.50;1.80;;;23.90;99.90;;;;;;4215616;28;20166;-86
2022/05/23 10:15:32;;;;;;;4.47;2.10;;;24.20;99.90;;;;;;4215664;28;20260;-86
2022/05/23 10:17:37;;;;;;;5.90;1.80;;;24.20;99.90;;;;;;4215621;28;20590;-86
2022/05/23 10:19:39;;;;;;;3.85;1.88;;;24.10;99.90;;;;;;4198928;28;20167;-86
2022/05/23 10:21:43;;;;;;;3.13;1.92;;;24.00;99.90;;;;;;4216764;28;20166;-86
2022/05/23 10:24:04;;;;;;;6.70;1.90;;;24.20;99.90;;;;;;4215436;28;20166;-86
2022/05/23 10:26:20;;;;;;;8.40;2.20;;;24.50;99.90;;;;;;4216627;28;20174;-86
2022/05/23 10:28:31;;;;;;;4.47;2.00;;;24.60;99.90;;;;;;4198645;28;20155;-86
2022/05/23 10:30:36;;;;;;;4.32;2.20;;;24.50;99.90;;;;;;4215526;28;20649;-87
2022/05/23 10:32:48;;;;;;;2.95;1.75;;;24.60;99.90;;;;;;4198579;28;20170;-86
2022/05/23 10:34:52;;;;;;;4.90;1.60;;;24.70;99.90;;;;;;4198315;28;20171;-86
2022/05/23 10:36:54;;;;;;;6.75;1.90;;;24.80;99.90;;;;;;4214965;28;20186;-86
2022/05/23 10:42:08;;;;;;;6.47;2.08;;;25.00;99.90;;;;;;4215104;28;20182;-86
2022/05/23 10:44:22;;;;;;;5.43;2.30;;;25.10;99.90;;;;;;4192584;28;20612;-86
2022/05/23 10:46:26;;;;;;;5.70;2.33;;;25.30;99.90;;;;;;4198022;28;20194;-86
2022/05/23 10:48:48;;;;;;;4.03;2.00;;;25.30;99.90;;;;;;4198327;28;20163;-86
2022/05/23 10:51:21;;;;;;;4.35;2.10;;;25.40;99.90;;;;;;4198390;28;20194;-84
2022/05/23 10:53:47;;;;;;;5.72;2.30;;;25.50;99.90;;;;;;4215033;28;20181;-87
2022/05/23 10:56:11;;;;;;;6.35;2.08;;;25.40;99.90;;;;;;4198198;28;20192;-86
2022/05/23 10:58:45;;;;;;;7.10;2.03;;;25.30;99.90;;;;;;4214789;28;20181;-86
2022/05/23 11:01:18;;;;;;;7.50;1.88;;;25.40;99.90;;;;;;4161026;28;20672;-86
2022/05/23 11:03:35;;;;;;;6.40;2.28;;;25.60;99.90;;;;;;4214152;28;20178;-86
2022/05/23 11:05:59;;;;;;;9.55;2.60;;;25.30;99.90;;;;;;4215970;28;20295;-86
2022/05/23 11:08:16;;;;;;;13.18;2.55;;;25.50;99.90;;;;;;4215768;28;20213;-85
2022/05/23 11:10:29;;;;;;;5.82;2.00;;;25.60;99.90;;;;;;4214740;28;20220;-86
2022/05/23 11:13:01;;;;;;;5.13;2.25;;;25.00;99.90;;;;;;4215762;28;20189;-87
2022/05/23 11:15:23;;;;;;;11.73;2.47;;;24.50;99.90;;;;;;4215793;28;20170;-86
2022/05/23 11:17:32;;;;;;;21.98;4.57;;;23.90;99.90;;;;;;4214172;28;20193;-85
2022/05/23 11:20:18;;;;;;;19.02;4.70;;;23.20;99.90;;;;;;4215872;28;20272;-85
2022/05/23 11:22:28;;;;;;;19.95;4.43;;;22.90;99.90;;;;;;4181077;28;20326;-85
2022/05/23 11:25:12;;;;;;;17.50;4.32;;;22.50;99.90;;;;;;4201508;28;20194;-86
2022/05/23 11:35:21;;;;;;;19.05;5.53;;;22.10;99.90;;;;;;4215925;28;20150;-85
2022/05/23 11:39:50;;;;;;;20.30;5.47;;;21.80;99.90;;;;;;4214495;28;20173;-85
2022/05/23 11:41:53;;;;;;;18.42;6.43;;;21.60;99.90;;;;;;4215601;28;20170;-87
2022/05/23 11:43:54;;;;;;;15.23;6.35;;;21.50;99.90;;;;;;4214445;28;20315;-90
2022/05/23 11:46:04;;;;;;;17.88;6.68;;;20.70;99.90;;;;;;4214524;28;20170;-90
2022/05/23 11:48:34;;;;;;;19.55;7.15;;;20.30;99.90;;;;;;4198062;28;20209;-90
2022/05/23 11:50:49;;;;;;;14.82;7.03;;;19.80;99.90;;;;;;4197872;28;20190;-90
2022/05/23 11:53:05;;;;;;;16.60;7.43;;;19.80;99.90;;;;;;4214298;28;20563;-90
2022/05/23 11:55:09;;;;;;;17.67;8.50;;;19.50;99.90;;;;;;4214047;28;20603;-90
2022/05/23 11:57:14;;;;;;;18.20;8.75;;;19.40;99.90;;;;;;4213987;28;20736;-90
2022/05/23 11:59:24;;;;;;;18.92;9.30;;;19.30;99.90;;;;;;4197450;28;20206;-90
2022/05/23 12:01:29;;;;;;;20.60;9.30;;;19.20;99.90;;;;;;4214239;28;20264;-90
2022/05/23 12:03:50;;;;;;;18.23;8.65;;;19.10;99.90;;;;;;4214295;28;20625;-90
2022/05/23 12:06:23;;;;;;;18.80;7.68;;;19.10;99.90;;;;;;4197688;28;20699;-90
2022/05/23 12:08:31;;;;;;;13.57;7.95;;;19.00;99.90;;;;;;4214335;28;20162;-90